Time;durP1;ratioP1;P1;durP2;ratioP2;P2;SDS_P1;SDS_P2;PMS_P1;PMS_P2;Temp;Humidity;BMP_temperature;BMP_pressure;BME280_temperature;BME280_humidity;BME280_pressure;Samples;Min_cycle;Max_cycle;Signal;HPM_P1;HPM_P2
2021/11/28 00:01:57;;;;;;;4.22;3.40;;;;;;;1.99;77.63;90541.81;2071418;69;20217;-72
2021/11/28 00:04:23;;;;;;;4.63;3.60;;;;;;;1.71;79.72;90541.63;2071448;69;20155;-72
2021/11/28 00:07:01;;;;;;;4.10;3.35;;;;;;;2.16;78.19;90543.44;2071409;69;20205;-70
2021/11/28 00:12:26;;;;;;;4.25;3.28;;;;;;;2.21;77.56;90543.06;2068164;69;20244;-69
2021/11/28 00:14:57;;;;;;;4.93;3.65;;;;;;;1.85;78.47;90544.50;2065272;69;20264;-73
2021/11/28 00:17:23;;;;;;;4.43;3.33;;;;;;;1.94;78.29;90540.13;2071493;69;20617;-68
2021/11/28 00:19:49;;;;;;;4.15;3.05;;;;;;;2.27;77.33;90548.94;2071410;69;20238;-69
2021/11/28 00:22:15;;;;;;;4.00;3.22;;;;;;;2.16;77.68;90549.72;2071559;69;20167;-72
2021/11/28 00:24:41;;;;;;;4.60;2.95;;;;;;;1.85;77.95;90552.81;2071431;69;20163;-70
2021/11/28 00:27:07;;;;;;;2.97;2.60;;;;;;;2.00;77.38;90540.47;2071188;69;20145;-70
2021/11/28 00:29:34;;;;;;;5.05;3.15;;;;;;;1.71;77.87;90554.78;2071551;69;20259;-70
2021/11/28 00:32:00;;;;;;;3.10;2.60;;;;;;;1.77;78.02;90547.53;2071438;69;20232;-70
2021/11/28 00:34:27;;;;;;;2.63;2.30;;;;;;;1.86;77.49;90545.94;2067796;69;20512;-69
2021/11/28 00:36:53;;;;;;;3.45;2.95;;;;;;;1.95;77.14;90549.91;2071561;69;20579;-70
2021/11/28 00:39:19;;;;;;;2.20;2.00;;;;;;;1.89;76.98;90552.34;2067931;69;20145;-74
2021/11/28 00:41:44;;;;;;;2.17;1.60;;;;;;;2.02;76.29;90560.03;2071476;69;20675;-69
2021/11/28 00:44:10;;;;;;;2.70;1.80;;;;;;;2.09;76.68;90556.25;2067934;69;20275;-70
2021/11/28 00:46:36;;;;;;;2.30;1.90;;;;;;;2.22;76.00;90558.38;2071247;69;20156;-71
2021/11/28 00:49:04;;;;;;;3.55;2.03;;;;;;;2.24;75.83;90557.75;2071179;69;20496;-73
2021/11/28 00:54:16;;;;;;;3.25;1.70;;;;;;;2.21;75.77;90576.38;2071225;69;20518;-75
2021/11/28 00:56:44;;;;;;;1.80;1.48;;;;;;;2.20;75.79;90588.06;2071169;69;20128;-71
2021/11/28 00:59:10;;;;;;;1.25;1.15;;;;;;;2.15;75.80;90586.41;2067818;69;20140;-69
2021/11/28 01:01:36;;;;;;;1.35;1.20;;;;;;;1.93;75.51;90589.34;2071167;69;20180;-70
2021/11/28 01:04:03;;;;;;;1.23;0.90;;;;;;;2.15;75.29;90591.94;2071189;69;20598;-70
2021/11/28 01:06:28;;;;;;;0.93;0.80;;;;;;;2.18;74.52;90599.06;2065209;69;20519;-70
2021/11/28 01:08:54;;;;;;;1.13;0.70;;;;;;;2.02;74.11;90593.31;2071473;69;20136;-73
2021/11/28 01:11:22;;;;;;;1.65;0.73;;;;;;;2.22;73.99;90600.03;2067899;69;20140;-70
2021/11/28 01:13:48;;;;;;;2.17;0.82;;;;;;;2.14;74.28;90601.59;2067841;69;20159;-71
2021/11/28 01:16:13;;;;;;;1.55;0.60;;;;;;;2.30;73.74;90608.09;2071312;69;20140;-70
2021/11/28 01:18:39;;;;;;;1.48;0.80;;;;;;;2.16;73.57;90610.06;2071255;69;20529;-70
2021/11/28 01:21:06;;;;;;;1.35;0.63;;;;;;;2.27;73.69;90606.53;2067820;69;20160;-71
2021/11/28 01:23:32;;;;;;;0.50;0.50;;;;;;;2.25;73.75;90615.47;2067845;69;20159;-71
2021/11/28 01:25:59;;;;;;;0.90;0.40;;;;;;;2.24;74.16;90619.56;2067804;69;20633;-70
2021/11/28 01:28:25;;;;;;;0.68;0.47;;;;;;;2.34;73.92;90621.47;2065006;69;20156;-74
2021/11/28 01:30:52;;;;;;;1.13;0.57;;;;;;;2.18;74.26;90622.00;2067783;69;20148;-69
2021/11/28 01:33:17;;;;;;;0.77;0.55;;;;;;;2.17;74.71;90619.84;2067648;69;20265;-68
2021/11/28 01:35:43;;;;;;;0.95;0.57;;;;;;;2.04;74.47;90623.97;2071153;69;20668;-68
2021/11/28 01:38:09;;;;;;;0.68;0.55;;;;;;;2.09;74.89;90611.75;2067663;69;20271;-69
2021/11/28 01:40:36;;;;;;;1.02;0.88;;;;;;;2.06;74.54;90609.47;2068224;69;20140;-70
2021/11/28 01:43:07;;;;;;;0.90;0.82;;;;;;;2.25;74.51;90615.47;2068154;69;20144;-70
2021/11/28 01:45:34;;;;;;;1.33;1.00;;;;;;;2.19;74.93;90614.38;2068245;69;20204;-69
2021/11/28 01:48:04;;;;;;;0.73;0.60;;;;;;;2.15;75.31;90609.31;2065457;69;20155;-70
2021/11/28 01:50:33;;;;;;;1.13;0.80;;;;;;;2.16;75.37;90607.28;2068348;69;20144;-73
2021/11/28 01:53:01;;;;;;;1.00;0.80;;;;;;;2.10;75.39;90615.25;2071573;69;20304;-70
2021/11/28 01:55:30;;;;;;;0.70;0.65;;;;;;;2.09;75.75;90616.59;2065586;69;20182;-70
2021/11/28 01:57:57;;;;;;;1.33;1.00;;;;;;;2.10;75.79;90618.03;2068299;69;20180;-72
2021/11/28 02:00:28;;;;;;;2.08;1.02;;;;;;;2.13;75.41;90609.22;2065363;69;20144;-68
2021/11/28 02:02:54;;;;;;;2.53;1.08;;;;;;;2.13;75.67;90605.72;2068307;69;20144;-69
2021/11/28 02:05:21;;;;;;;1.90;1.80;;;;;;;2.17;75.40;90598.34;2068191;69;20160;-69
2021/11/28 02:07:49;;;;;;;1.80;1.10;;;;;;;2.13;75.39;90600.88;2068225;69;20614;-70
2021/11/28 02:10:16;;;;;;;1.60;1.00;;;;;;;2.04;75.65;90598.97;2068207;69;20147;-73
2021/11/28 02:12:44;;;;;;;1.90;1.00;;;;;;;2.19;75.17;90595.69;2068216;69;20151;-68
2021/11/28 02:15:10;;;;;;;2.17;1.00;;;;;;;2.07;75.84;90589.44;2065326;69;20215;-69
2021/11/28 02:17:42;;;;;;;0.70;0.60;;;;;;;2.13;74.64;90592.56;2068200;69;20152;-69
2021/11/28 02:20:08;;;;;;;1.77;0.70;;;;;;;2.07;74.63;90585.94;2068131;69;20171;-71
2021/11/28 02:22:38;;;;;;;1.70;0.70;;;;;;;2.14;74.49;90591.22;2067792;69;20144;-69
2021/11/28 02:25:06;;;;;;;3.22;0.90;;;;;;;2.09;74.38;90584.00;2068272;69;20145;-72
2021/11/28 02:27:32;;;;;;;1.92;0.93;;;;;;;1.74;75.57;90582.03;2068445;69;20156;-72
2021/11/28 02:29:57;;;;;;;2.70;1.15;;;;;;;1.70;76.12;90592.19;2068358;69;20160;-71
2021/11/28 02:32:23;;;;;;;1.25;0.70;;;;;;;2.02;74.94;90593.31;2068449;69;20239;-71
2021/11/28 02:34:49;;;;;;;4.47;0.80;;;;;;;1.98;74.97;90588.25;2071531;69;20147;-70
2021/11/28 02:37:15;;;;;;;1.50;0.60;;;;;;;2.08;74.61;90576.28;2071551;69;20154;-69
2021/11/28 02:39:41;;;;;;;2.05;0.70;;;;;;;2.05;74.44;90564.34;2068331;69;20140;-73
2021/11/28 02:42:07;;;;;;;0.85;0.57;;;;;;;1.96;74.47;90567.97;2071662;69;20143;-71
2021/11/28 02:44:34;;;;;;;1.73;0.63;;;;;;;2.03;74.57;90562.19;2068357;69;20603;-71
2021/11/28 02:47:00;;;;;;;2.97;1.10;;;;;;;1.88;75.17;90554.38;2068456;69;20209;-72
2021/11/28 02:49:26;;;;;;;1.85;0.80;;;;;;;1.92;75.28;90557.38;2071680;69;20145;-70
2021/11/28 02:51:53;;;;;;;1.60;0.80;;;;;;;1.88;75.28;90561.97;2068337;69;20183;-71
2021/11/28 02:54:19;;;;;;;0.90;0.80;;;;;;;1.68;75.48;90572.63;2068412;69;20264;-73
2021/11/28 02:56:46;;;;;;;0.60;0.60;;;;;;;1.73;75.30;90568.75;2068382;69;20132;-70
2021/11/28 02:59:12;;;;;;;2.00;0.50;;;;;;;1.78;75.12;90568.38;2068426;69;20584;-71
2021/11/28 03:01:39;;;;;;;0.65;0.60;;;;;;;1.91;74.89;90563.53;2068317;69;20548;-71
2021/11/28 03:04:43;;;;;;;0.85;0.55;;;;;;;1.88;75.06;90556.41;2060263;69;20160;-71
2021/11/28 03:07:15;;;;;;;1.65;0.82;;;;;;;1.86;75.32;90548.00;2060470;69;20137;-74
2021/11/28 03:09:40;;;;;;;1.23;0.55;;;;;;;1.70;75.36;90542.25;2065970;69;20144;-71
2021/11/28 03:12:06;;;;;;;1.30;0.77;;;;;;;1.54;75.55;90553.09;2071781;69;20155;-73
2021/11/28 03:14:32;;;;;;;1.27;0.77;;;;;;;1.68;75.59;90551.16;2068376;69;20144;-74
2021/11/28 03:16:57;;;;;;;1.90;0.55;;;;;;;1.87;75.21;90555.69;2068469;69;20246;-72
2021/11/28 03:19:23;;;;;;;1.98;0.70;;;;;;;1.75;75.58;90555.75;2068285;69;20151;-74
2021/11/28 03:21:49;;;;;;;0.90;0.68;;;;;;;1.74;75.62;90554.31;2071785;69;20155;-69
2021/11/28 03:24:15;;;;;;;1.30;0.70;;;;;;;1.87;75.18;90552.19;2071691;69;20220;-71
2021/11/28 03:26:43;;;;;;;1.23;1.13;;;;;;;1.87;74.60;90558.47;2065618;69;20148;-70
2021/11/28 03:29:14;;;;;;;1.75;1.58;;;;;;;1.86;74.38;90551.47;2065746;69;20184;-71
2021/11/28 03:31:58;;;;;;;0.80;0.80;;;;;;;1.66;74.80;90556.59;2071990;69;20228;-71
2021/11/28 03:34:37;;;;;;;0.85;0.75;;;;;;;1.42;74.92;90555.91;2068920;69;20137;-71
2021/11/28 03:37:24;;;;;;;2.67;0.75;;;;;;;1.37;75.85;90547.94;2068500;69;20159;-73
2021/11/28 03:39:50;;;;;;;1.60;0.90;;;;;;;1.07;77.37;90542.03;2068480;69;20278;-71
2021/11/28 03:42:22;;;;;;;2.50;0.82;;;;;;;1.34;77.16;90546.38;2068445;69;20137;-70
2021/11/28 03:44:49;;;;;;;1.05;0.80;;;;;;;1.61;75.96;90543.09;2068466;69;20230;-70
2021/11/28 03:47:19;;;;;;;1.90;1.20;;;;;;;1.57;76.13;90532.50;2068489;69;20147;-72
2021/11/28 03:49:59;;;;;;;2.35;1.00;;;;;;;1.67;75.63;90543.44;2068358;69;20145;-70
2021/11/28 03:52:25;;;;;;;1.73;1.20;;;;;;;1.73;75.23;90552.84;2071781;69;20141;-72
2021/11/28 03:54:51;;;;;;;1.38;1.08;;;;;;;1.63;74.91;90549.47;2068401;69;20198;-70
2021/11/28 03:57:19;;;;;;;2.83;1.50;;;;;;;1.72;75.10;90553.44;2068567;69;20160;-71
2021/11/28 03:59:45;;;;;;;1.73;1.30;;;;;;;1.67;75.39;90555.25;2068432;69;20232;-71
2021/11/28 04:02:11;;;;;;;2.13;1.42;;;;;;;1.72;75.43;90556.22;2067583;69;20228;-74
2021/11/28 04:04:37;;;;;;;1.77;1.50;;;;;;;1.62;75.35;90550.81;2068306;69;20160;-70
2021/11/28 04:07:32;;;;;;;2.33;1.60;;;;;;;1.65;75.86;90548.88;2065903;69;20203;-76
2021/11/28 04:09:58;;;;;;;1.33;1.23;;;;;;;1.72;75.32;90553.44;2067844;69;20172;-72
2021/11/28 04:12:24;;;;;;;1.73;1.17;;;;;;;1.66;75.25;90553.09;2067893;69;20179;-71
2021/11/28 04:14:50;;;;;;;2.00;1.00;;;;;;;1.44;75.95;90560.84;2067851;69;20172;-70
2021/11/28 04:17:16;;;;;;;2.47;0.98;;;;;;;1.53;75.76;90560.72;2067908;69;20133;-71
2021/11/28 04:19:47;;;;;;;1.27;1.15;;;;;;;1.69;75.56;90571.28;2067745;69;20238;-72
2021/11/28 04:22:13;;;;;;;1.60;1.42;;;;;;;1.72;75.23;90567.31;2067829;69;20160;-70
2021/11/28 04:24:41;;;;;;;3.42;1.40;;;;;;;1.61;75.69;90565.28;2067819;69;20593;-72
2021/11/28 04:27:07;;;;;;;2.60;1.40;;;;;;;1.69;75.81;90560.91;2065131;69;20136;-72
2021/11/28 04:29:32;;;;;;;2.95;1.50;;;;;;;1.70;75.46;90548.50;2067824;69;20257;-72
2021/11/28 04:31:59;;;;;;;2.03;1.40;;;;;;;1.56;75.88;90541.41;2067825;69;20255;-73
2021/11/28 04:34:25;;;;;;;2.67;1.70;;;;;;;1.37;76.59;90545.88;2064911;69;20179;-72
2021/11/28 04:36:50;;;;;;;4.32;1.73;;;;;;;1.20;77.32;90543.50;2067832;69;20292;-70
2021/11/28 04:39:16;;;;;;;2.03;1.40;;;;;;;1.17;77.81;90559.28;2067808;69;20181;-72
2021/11/28 04:41:42;;;;;;;1.52;1.23;;;;;;;1.51;76.53;90554.31;2067768;69;20148;-71
2021/11/28 04:44:08;;;;;;;1.38;1.17;;;;;;;1.60;75.97;90550.69;2067801;69;20156;-71
2021/11/28 04:46:37;;;;;;;3.22;1.17;;;;;;;1.64;75.74;90558.53;2067791;69;20148;-72
2021/11/28 04:49:03;;;;;;;1.90;1.17;;;;;;;1.24;76.97;90552.06;2068172;69;20140;-76
2021/11/28 04:51:35;;;;;;;1.73;1.20;;;;;;;1.25;76.76;90561.81;2068334;69;20147;-76
2021/11/28 04:54:01;;;;;;;1.60;1.40;;;;;;;1.39;77.06;90559.88;2067827;69;20151;-73
2021/11/28 04:56:27;;;;;;;3.38;1.30;;;;;;;1.57;76.02;90556.72;2067735;69;20149;-70
2021/11/28 04:58:54;;;;;;;2.78;2.10;;;;;;;1.46;76.56;90553.34;2068277;69;20167;-74
2021/11/28 05:01:23;;;;;;;4.32;2.30;;;;;;;1.60;76.04;90547.19;2067674;69;20157;-74
2021/11/28 05:03:51;;;;;;;4.00;3.08;;;;;;;1.44;76.06;90552.53;2067655;69;20179;-73
2021/11/28 05:06:39;;;;;;;4.47;3.30;;;;;;;0.97;78.00;90558.06;2068269;69;20171;-71
2021/11/28 05:09:19;;;;;;;3.70;2.53;;;;;;;1.16;78.29;90560.59;2067795;69;20215;-71
2021/11/28 05:11:45;;;;;;;3.67;2.85;;;;;;;1.39;77.20;90567.47;2065082;69;20318;-70
2021/11/28 05:14:12;;;;;;;3.65;2.50;;;;;;;1.42;76.85;90569.03;2067647;69;20156;-72
2021/11/28 05:16:38;;;;;;;5.10;3.30;;;;;;;1.59;76.01;90571.44;2067722;69;20160;-72
2021/11/28 05:19:04;;;;;;;4.47;2.95;;;;;;;1.50;75.47;90577.81;2068140;69;20632;-73
2021/11/28 05:21:56;;;;;;;3.95;3.00;;;;;;;1.53;75.82;90591.22;2064039;69;20218;-69
2021/11/28 05:24:22;;;;;;;3.65;2.95;;;;;;;1.53;75.89;90585.66;2067693;69;20575;-72
2021/11/28 05:26:51;;;;;;;2.58;1.80;;;;;;;1.55;75.70;90581.56;2067705;69;20153;-75
2021/11/28 05:29:18;;;;;;;2.05;1.70;;;;;;;1.60;75.51;90589.50;2067673;69;20145;-69
2021/11/28 05:31:45;;;;;;;2.15;1.50;;;;;;;1.56;75.09;90580.97;2068173;69;20180;-71
2021/11/28 05:34:37;;;;;;;2.47;1.60;;;;;;;1.30;76.09;90584.94;2068032;69;20145;-70
2021/11/28 05:37:22;;;;;;;3.40;1.48;;;;;;;1.32;75.94;90571.19;2068219;69;20155;-70
2021/11/28 05:39:52;;;;;;;1.98;1.45;;;;;;;1.30;75.93;90560.72;2067682;69;20144;-72
2021/11/28 05:42:17;;;;;;;2.53;1.55;;;;;;;1.32;76.01;90565.66;2067661;69;20170;-69
2021/11/28 05:44:43;;;;;;;2.45;1.33;;;;;;;1.55;75.41;90565.63;2067669;69;20152;-69
2021/11/28 05:47:28;;;;;;;2.03;1.33;;;;;;;1.58;75.44;90561.66;2068225;69;20194;-70
2021/11/28 05:50:10;;;;;;;1.98;1.50;;;;;;;1.63;75.10;90557.06;2067530;69;20170;-72
2021/11/28 05:52:41;;;;;;;1.38;1.08;;;;;;;1.50;75.13;90564.69;2067655;69;20279;-72
2021/11/28 05:55:08;;;;;;;4.30;1.13;;;;;;;1.47;75.70;90565.91;2068157;69;20631;-70
2021/11/28 05:57:34;;;;;;;1.50;1.23;;;;;;;1.56;75.32;90580.97;2067601;69;20140;-71
2021/11/28 06:00:00;;;;;;;2.20;1.30;;;;;;;1.56;75.10;90575.44;2068137;69;20148;-70
2021/11/28 06:02:26;;;;;;;4.53;1.30;;;;;;;1.58;75.08;90572.03;2068047;69;20148;-71
2021/11/28 06:05:11;;;;;;;3.17;1.50;;;;;;;1.61;74.94;90579.16;2068042;69;20144;-74
2021/11/28 06:07:49;;;;;;;4.35;2.85;;;;;;;1.47;75.14;90573.50;2068166;69;20524;-71
2021/11/28 06:10:18;;;;;;;4.20;2.85;;;;;;;1.23;76.29;90570.00;2068278;69;20588;-73
2021/11/28 06:12:44;;;;;;;6.03;3.97;;;;;;;1.44;76.11;90574.69;2068176;69;20233;-73
2021/11/28 06:15:10;;;;;;;9.55;2.97;;;;;;;1.41;76.17;90576.63;2068110;69;20206;-69
2021/11/28 06:17:55;;;;;;;5.88;3.10;;;;;;;1.53;75.87;90579.41;2071572;69;20186;-75
2021/11/28 06:20:44;;;;;;;3.78;3.00;;;;;;;1.62;75.47;90575.78;2069917;69;20213;-69
2021/11/28 06:23:15;;;;;;;5.72;3.13;;;;;;;1.57;75.93;90576.88;2068046;69;20249;-73
2021/11/28 06:25:41;;;;;;;6.85;3.22;;;;;;;1.45;76.50;90584.47;2068277;69;20219;-71
2021/11/28 06:28:08;;;;;;;5.43;3.38;;;;;;;1.41;76.50;90587.72;2068581;69;20156;-72
2021/11/28 06:30:34;;;;;;;7.40;5.07;;;;;;;1.44;76.20;90591.34;2068659;69;20596;-74
2021/11/28 06:33:16;;;;;;;15.55;9.43;;;;;;;1.37;76.66;90592.28;2071893;69;20143;-75
2021/11/28 06:36:01;;;;;;;16.55;9.00;;;;;;;1.39;76.67;90597.97;2072137;69;20148;-73
2021/11/28 06:38:41;;;;;;;15.60;9.68;;;;;;;1.49;76.63;90590.25;2068620;69;20159;-72
2021/11/28 06:41:07;;;;;;;15.40;9.48;;;;;;;1.47;76.36;90588.09;2071960;69;20137;-75
2021/11/28 06:43:33;;;;;;;12.45;7.70;;;;;;;1.52;76.20;90578.69;2068557;69;20596;-75
2021/11/28 06:46:02;;;;;;;6.07;3.70;;;;;;;1.43;76.25;90592.66;2071949;69;20133;-75
2021/11/28 06:48:29;;;;;;;9.25;5.03;;;;;;;1.47;76.46;90587.38;2068491;69;20136;-76
2021/11/28 06:51:15;;;;;;;8.45;5.88;;;;;;;1.57;76.00;90587.25;2071814;69;20592;-73
2021/11/28 06:53:41;;;;;;;13.18;7.50;;;;;;;1.63;75.66;90593.13;2068601;69;20144;-71
2021/11/28 06:56:25;;;;;;;11.63;7.97;;;;;;;1.55;75.79;90585.06;2071942;69;20144;-72
2021/11/28 06:58:58;;;;;;;12.93;7.68;;;;;;;1.44;76.28;90585.78;2068597;69;20156;-73
2021/11/28 07:01:23;;;;;;;8.02;5.30;;;;;;;1.39;76.58;90590.38;2068513;69;20149;-74
2021/11/28 07:04:24;;;;;;;5.95;2.92;;;;;;;1.16;77.49;90587.59;2064133;69;20202;-73
2021/11/28 07:07:10;;;;;;;4.20;2.30;;;;;;;1.09;77.34;90585.78;2071238;69;20251;-71
2021/11/28 07:09:37;;;;;;;4.70;2.47;;;;;;;1.36;76.45;90596.41;2068555;69;20233;-71
2021/11/28 07:12:04;;;;;;;3.30;2.40;;;;;;;1.35;76.33;90600.50;2068509;69;20594;-71
2021/11/28 07:14:29;;;;;;;3.53;2.40;;;;;;;1.32;76.29;90590.59;2068534;69;20144;-70
2021/11/28 07:16:55;;;;;;;4.18;2.40;;;;;;;1.31;75.83;90584.34;2068505;69;20156;-71
2021/11/28 07:19:22;;;;;;;3.90;2.75;;;;;;;1.17;76.43;90589.75;2068407;69;20155;-75
2021/11/28 07:22:06;;;;;;;4.38;2.50;;;;;;;1.24;76.53;90583.28;2071882;69;20229;-71
2021/11/28 07:24:35;;;;;;;3.15;2.30;;;;;;;1.31;75.95;90591.94;2068492;69;20297;-72
2021/11/28 07:27:01;;;;;;;3.72;2.40;;;;;;;1.29;76.05;90597.38;2068514;69;20255;-72
2021/11/28 07:29:27;;;;;;;3.10;2.08;;;;;;;1.30;75.92;90596.75;2068554;69;20508;-75
2021/11/28 07:31:53;;;;;;;3.58;2.40;;;;;;;1.17;76.20;90586.97;2068516;69;20243;-73
2021/11/28 07:34:57;;;;;;;3.15;2.22;;;;;;;1.18;76.18;90582.16;2057043;69;20183;-76
2021/11/28 07:37:55;;;;;;;5.10;2.67;;;;;;;1.31;75.57;90586.41;2051669;69;20145;-70
2021/11/28 07:40:21;;;;;;;4.97;2.40;;;;;;;1.24;75.42;90588.81;2061181;69;20157;-71
2021/11/28 07:42:59;;;;;;;2.97;2.30;;;;;;;1.02;76.57;90596.50;2068564;69;20596;-73
2021/11/28 07:45:48;;;;;;;3.22;2.70;;;;;;;1.06;76.49;90598.06;2065210;69;20180;-71
2021/11/28 07:48:36;;;;;;;8.13;2.40;;;;;;;1.19;75.99;90587.13;2068458;69;20194;-71
2021/11/28 07:51:28;;;;;;;4.10;2.80;;;;;;;1.23;75.58;90592.88;2071234;69;20182;-70
2021/11/28 07:53:56;;;;;;;4.40;2.65;;;;;;;1.18;75.33;90587.72;2071800;69;20594;-71
2021/11/28 07:56:23;;;;;;;3.63;2.08;;;;;;;1.24;74.81;90586.03;2065673;69;20140;-70
2021/11/28 07:59:07;;;;;;;6.53;2.50;;;;;;;0.91;75.84;90588.16;2071915;69;20619;-71
2021/11/28 08:01:33;;;;;;;6.53;2.78;;;;;;;1.04;75.15;90582.03;2068302;69;20155;-71
2021/11/28 08:04:17;;;;;;;3.92;2.65;;;;;;;1.16;74.46;90582.78;2068830;69;20240;-71
2021/11/28 08:07:06;;;;;;;5.55;3.20;;;;;;;1.11;74.23;90589.41;2071652;69;20179;-70
2021/11/28 08:09:34;;;;;;;5.45;2.70;;;;;;;1.04;73.79;90584.81;2071772;69;20136;-71
2021/11/28 08:12:10;;;;;;;4.68;2.40;;;;;;;0.86;74.08;90587.19;2071714;69;20570;-70
2021/11/28 08:14:38;;;;;;;10.63;5.70;;;;;;;0.73;74.84;90598.84;2071729;69;20148;-72
2021/11/28 08:17:03;;;;;;;34.90;15.18;;;;;;;0.57;76.22;90589.53;2071816;69;20291;-70
2021/11/28 08:19:29;;;;;;;69.60;26.20;;;;;;;0.82;76.68;90605.59;2071598;69;20624;-74
2021/11/28 08:21:55;;;;;;;58.10;21.80;;;;;;;0.93;76.28;90605.63;2071688;69;20237;-71
2021/11/28 08:24:22;;;;;;;26.20;10.88;;;;;;;0.98;75.92;90604.56;2068376;69;20240;-71
2021/11/28 08:26:47;;;;;;;24.88;11.65;;;;;;;1.17;75.81;90611.94;2071712;69;20231;-73
2021/11/28 08:29:13;;;;;;;35.97;19.15;;;;;;;1.33;75.62;90617.75;2071717;69;20201;-74
2021/11/28 08:31:42;;;;;;;26.25;14.07;;;;;;;1.34;75.93;90621.94;2068660;69;20507;-73
2021/11/28 08:34:27;;;;;;;24.92;13.82;;;;;;;1.48;75.29;90622.09;2073251;69;20231;-72
2021/11/28 08:37:01;;;;;;;26.80;14.57;;;;;;;1.39;75.80;90609.78;2074881;69;20248;-74
2021/11/28 08:39:27;;;;;;;25.92;15.75;;;;;;;1.47;74.92;90624.13;2075058;69;20152;-74
2021/11/28 08:41:53;;;;;;;25.52;15.05;;;;;;;1.51;75.02;90623.63;2068891;69;20227;-71
2021/11/28 08:44:20;;;;;;;22.00;13.65;;;;;;;1.63;75.26;90624.34;2071706;69;20547;-71
2021/11/28 08:46:46;;;;;;;29.67;15.73;;;;;;;1.81;74.72;90615.66;2075032;69;20171;-71
2021/11/28 08:49:13;;;;;;;34.80;17.33;;;;;;;2.17;75.48;90617.06;2071412;69;20171;-71
2021/11/28 08:51:38;;;;;;;30.65;18.55;;;;;;;2.70;75.24;90611.66;2075026;69;20534;-72
2021/11/28 08:54:04;;;;;;;29.63;17.02;;;;;;;3.20;71.97;90624.81;2075028;69;20147;-71
2021/11/28 08:56:30;;;;;;;30.98;16.95;;;;;;;2.80;72.85;90618.53;2074975;69;20142;-70
2021/11/28 08:58:56;;;;;;;27.55;14.63;;;;;;;2.48;73.50;90620.22;2071685;69;20147;-71
2021/11/28 09:01:21;;;;;;;28.98;16.70;;;;;;;2.87;73.65;90629.97;2074856;69;20152;-72
2021/11/28 09:03:47;;;;;;;28.95;16.15;;;;;;;2.79;72.34;90630.22;2074924;69;20151;-71
2021/11/28 09:06:13;;;;;;;27.80;15.57;;;;;;;3.08;71.36;90642.94;2075113;69;20144;-71
2021/11/28 09:08:38;;;;;;;22.92;13.55;;;;;;;3.60;70.46;90639.44;2074939;69;20667;-71
2021/11/28 09:11:05;;;;;;;20.60;11.68;;;;;;;3.80;70.02;90634.94;2074965;69;20124;-71
2021/11/28 09:13:36;;;;;;;22.27;12.05;;;;;;;3.33;70.30;90640.09;2075083;69;20201;-71
2021/11/28 09:16:03;;;;;;;19.17;12.02;;;;;;;3.24;70.79;90630.59;2071590;69;20515;-71
2021/11/28 09:18:37;;;;;;;15.32;10.25;;;;;;;3.74;70.81;90631.13;2074801;69;20247;-69
2021/11/28 09:21:04;;;;;;;14.93;9.82;;;;;;;3.53;69.19;90626.56;2071501;69;20163;-71
2021/11/28 09:26:14;;;;;;;18.63;11.48;;;;;;;4.26;67.61;90638.66;2075048;69;20240;-78
2021/11/28 09:28:40;;;;;;;13.05;8.05;;;;;;;3.87;67.56;90633.19;2074965;69;20564;-76
2021/11/28 09:31:10;;;;;;;12.18;7.85;;;;;;;4.14;66.95;90640.81;2074963;69;20233;-75
2021/11/28 09:33:37;;;;;;;11.02;7.03;;;;;;;4.30;66.51;90646.47;2071510;69;20603;-75
2021/11/28 09:36:03;;;;;;;12.82;7.68;;;;;;;4.51;66.40;90648.22;2075039;69;20152;-78
2021/11/28 09:38:30;;;;;;;14.50;7.07;;;;;;;4.32;65.88;90635.44;2074954;69;20155;-72
2021/11/28 09:40:57;;;;;;;8.30;5.38;;;;;;;4.13;66.50;90641.44;2074950;69;20585;-72
2021/11/28 09:43:26;;;;;;;8.73;5.50;;;;;;;4.40;66.24;90641.44;2071513;69;20151;-77
2021/11/28 09:45:53;;;;;;;8.45;5.40;;;;;;;4.39;66.16;90626.03;2075105;69;20603;-72
2021/11/28 09:48:22;;;;;;;6.93;4.50;;;;;;;4.09;63.83;90622.47;2074820;69;20171;-73
2021/11/28 09:50:48;;;;;;;4.60;3.05;;;;;;;3.83;64.88;90625.34;2075032;69;20150;-75
2021/11/28 09:53:15;;;;;;;5.18;2.65;;;;;;;4.08;65.79;90623.81;2071476;69;20136;-71
2021/11/28 09:55:42;;;;;;;6.05;3.58;;;;;;;4.34;64.47;90618.81;2074837;69;20163;-74
2021/11/28 09:58:08;;;;;;;13.68;7.72;;;;;;;4.96;63.71;90620.44;2071490;69;20156;-74
2021/11/28 10:00:35;;;;;;;22.67;9.90;;;;;;;5.07;63.17;90610.47;2074980;69;20176;-71
2021/11/28 10:03:05;;;;;;;13.23;7.15;;;;;;;4.58;62.90;90608.91;2075350;69;20222;-75
2021/11/28 10:05:31;;;;;;;14.43;10.23;;;;;;;4.45;63.82;90608.94;2075336;69;20136;-75
2021/11/28 10:07:58;;;;;;;12.65;8.48;;;;;;;5.06;63.89;90601.41;2075388;69;20155;-74
2021/11/28 10:10:27;;;;;;;9.57;6.53;;;;;;;5.30;64.04;90598.28;2075368;69;20148;-73
2021/11/28 10:12:53;;;;;;;12.15;6.57;;;;;;;5.35;63.13;90591.53;2075311;69;20520;-71
2021/11/28 10:15:25;;;;;;;11.82;7.97;;;;;;;5.37;62.15;90593.72;2075297;69;20166;-71
2021/11/28 10:17:52;;;;;;;8.15;5.57;;;;;;;4.78;62.61;90589.63;2071992;69;20136;-68
2021/11/28 10:20:20;;;;;;;8.43;5.25;;;;;;;5.77;63.06;90581.56;2071833;69;20481;-71
2021/11/28 10:22:48;;;;;;;7.47;5.47;;;;;;;5.94;60.76;90585.09;2075242;69;20142;-74
2021/11/28 10:25:32;;;;;;;7.40;5.15;;;;;;;5.81;60.47;90578.22;2075329;69;20156;-71
2021/11/28 10:28:04;;;;;;;10.77;5.72;;;;;;;6.01;60.63;90573.56;2075477;69;20235;-72
2021/11/28 10:30:29;;;;;;;6.93;5.00;;;;;;;5.48;60.70;90570.50;2075409;69;20231;-71
2021/11/28 10:33:03;;;;;;;8.63;5.20;;;;;;;5.23;61.30;90563.09;2075231;69;20136;-72
2021/11/28 10:35:29;;;;;;;7.85;5.10;;;;;;;4.99;61.12;90560.63;2075141;69;20254;-71
2021/11/28 10:37:55;;;;;;;6.80;3.97;;;;;;;4.97;60.70;90563.31;2075171;69;20143;-71
2021/11/28 10:40:24;;;;;;;6.47;4.03;;;;;;;5.00;60.82;90566.94;2071943;69;20156;-73
2021/11/28 10:43:09;;;;;;;7.32;4.55;;;;;;;5.03;61.58;90565.66;2075083;69;20244;-73
2021/11/28 10:45:47;;;;;;;5.07;3.33;;;;;;;5.04;60.30;90573.44;2068979;69;20669;-72
2021/11/28 10:48:15;;;;;;;12.48;5.78;;;;;;;4.21;61.84;90575.72;2071745;69;20688;-74
2021/11/28 10:50:41;;;;;;;12.60;6.95;;;;;;;4.42;62.90;90563.53;2075157;69;20231;-73
2021/11/28 10:53:19;;;;;;;13.13;7.18;;;;;;;4.73;62.29;90562.91;2071777;69;20228;-71
2021/11/28 10:55:45;;;;;;;9.15;5.60;;;;;;;4.45;62.80;90561.56;2075075;69;20205;-71
2021/11/28 10:58:20;;;;;;;7.43;4.57;;;;;;;4.57;62.21;90551.69;2075128;69;20160;-74
2021/11/28 11:00:46;;;;;;;7.45;4.28;;;;;;;4.71;62.17;90557.22;2075043;69;20148;-74
2021/11/28 11:03:23;;;;;;;7.00;4.85;;;;;;;4.85;61.40;90552.31;2075176;69;20213;-74
2021/11/28 11:05:50;;;;;;;7.68;4.85;;;;;;;4.96;62.41;90553.53;2075169;69;20172;-70
2021/11/28 11:08:17;;;;;;;9.13;5.18;;;;;;;5.00;61.33;90550.22;2071841;69;20149;-73
2021/11/28 11:10:50;;;;;;;9.05;6.10;;;;;;;4.98;60.28;90547.31;2075077;69;20235;-71
2021/11/28 11:13:19;;;;;;;9.15;5.22;;;;;;;4.80;60.49;90544.41;2075086;69;20156;-69
2021/11/28 11:15:49;;;;;;;10.02;5.00;;;;;;;4.60;60.67;90538.59;2075224;69;20143;-69
2021/11/28 11:18:17;;;;;;;7.85;4.93;;;;;;;5.06;60.83;90539.31;2074973;69;20132;-70
2021/11/28 11:20:45;;;;;;;13.55;7.38;;;;;;;4.95;60.79;90540.94;2075177;69;20144;-69
2021/11/28 11:23:33;;;;;;;18.67;10.05;;;;;;;4.93;59.75;90534.53;2074999;69;20527;-70
2021/11/28 11:26:23;;;;;;;26.77;11.80;;;;;;;5.23;60.35;90541.50;2071719;69;20155;-70
2021/11/28 11:29:14;;;;;;;14.38;8.07;;;;;;;5.52;60.73;90548.34;2071674;69;20233;-69
2021/11/28 11:31:54;;;;;;;16.02;9.07;;;;;;;5.50;59.53;90543.41;2071759;69;20484;-69
2021/11/28 11:34:25;;;;;;;14.60;8.68;;;;;;;5.54;60.03;90540.81;2074929;69;20211;-69
2021/11/28 11:37:16;;;;;;;13.10;7.10;;;;;;;5.51;59.19;90550.44;2075051;69;20213;-69
2021/11/28 11:39:45;;;;;;;7.60;5.28;;;;;;;5.25;58.97;90538.78;2071891;69;20171;-71
2021/11/28 11:42:13;;;;;;;7.28;4.40;;;;;;;5.76;59.80;90543.09;2071641;69;20144;-69
2021/11/28 11:44:41;;;;;;;9.02;5.63;;;;;;;5.66;58.97;90543.38;2074991;69;20163;-70
2021/11/28 11:47:07;;;;;;;9.13;5.75;;;;;;;6.00;58.33;90540.66;2075013;69;20191;-70
2021/11/28 11:49:38;;;;;;;8.02;4.40;;;;;;;5.96;58.62;90530.06;2068745;69;20140;-70
2021/11/28 11:52:05;;;;;;;7.18;4.43;;;;;;;5.85;58.36;90530.94;2075102;69;20156;-71
2021/11/28 11:54:42;;;;;;;10.80;6.63;;;;;;;5.81;57.83;90519.59;2074940;69;20140;-71
2021/11/28 11:57:12;;;;;;;15.63;8.98;;;;;;;5.13;60.86;90521.50;2072633;69;20187;-70
2021/11/28 11:59:59;;;;;;;17.65;11.50;;;;;;;5.74;60.51;90524.22;2070975;69;20175;-73
2021/11/28 12:02:44;;;;;;;16.88;10.85;;;;;;;5.83;59.52;90520.41;2065422;69;20160;-70